Time;durP1;ratioP1;P1;durP2;ratioP2;P2;SDS_P1;SDS_P2;PMS_P1;PMS_P2;Temp;Humidity;BMP_temperature;BMP_pressure;BME280_temperature;BME280_humidity;BME280_pressure;Samples;Min_cycle;Max_cycle;Signal;HPM_P1;HPM_P2
2022/06/08 00:02:19;;;;;;;0.40;0.30;;;;;;;16.18;100.00;99831.56;5060537;28;20453;-50
2022/06/08 00:04:45;;;;;;;0.40;0.20;;;;;;;16.42;100.00;99831.03;5060256;28;20496;-50
2022/06/08 00:07:12;;;;;;;0.40;0.20;;;;;;;16.37;100.00;99830.44;5066338;28;20471;-51
2022/06/08 00:09:40;;;;;;;0.40;0.20;;;;;;;16.42;100.00;99833.72;5065441;28;20947;-50
2022/06/08 00:12:08;;;;;;;0.40;0.20;;;;;;;16.45;100.00;99826.34;5066120;28;20960;-50
2022/06/08 00:14:35;;;;;;;0.40;0.20;;;;;;;16.26;100.00;99831.94;5066170;28;20451;-51
2022/06/08 00:17:02;;;;;;;0.40;0.30;;;;;;;16.22;100.00;99826.84;5061153;28;20489;-50
2022/06/08 00:19:29;;;;;;;0.40;0.30;;;;;;;16.58;100.00;99824.66;5059649;28;20482;-52
2022/06/08 00:21:56;;;;;;;0.40;0.20;;;;;;;16.61;100.00;99833.47;5072606;28;20481;-50
2022/06/08 00:24:22;;;;;;;0.40;0.20;;;;;;;16.47;100.00;99819.06;5059470;28;20451;-50
2022/06/08 00:26:49;;;;;;;0.40;0.30;;;;;;;16.54;100.00;99822.22;5064773;28;20466;-51
2022/06/08 00:29:16;;;;;;;0.40;0.20;;;;;;;16.37;100.00;99823.25;5066180;28;20499;-50
2022/06/08 00:31:42;;;;;;;0.40;0.20;;;;;;;16.27;100.00;99828.31;5061873;28;20478;-51
2022/06/08 00:34:09;;;;;;;0.40;0.20;;;;;;;16.18;100.00;99819.97;5059586;28;20458;-50
2022/06/08 00:36:36;;;;;;;0.40;0.20;;;;;;;16.06;100.00;99820.69;5063957;28;21011;-51
2022/06/08 00:39:03;;;;;;;0.40;0.20;;;;;;;16.15;100.00;99826.34;5066346;28;20445;-50
2022/06/08 00:41:38;;;;;;;0.40;0.20;;;;;;;15.97;100.00;99830.97;5062170;28;20868;-50
2022/06/08 00:44:27;;;;;;;1.37;0.70;;;;;;;15.79;100.00;99831.19;5059232;28;20481;-50
2022/06/08 00:46:55;;;;;;;0.40;0.20;;;;;;;15.87;100.00;99831.59;5059101;28;20474;-52
2022/06/08 00:49:37;;;;;;;0.40;0.20;;;;;;;15.75;100.00;99833.16;5047208;28;20446;-51
2022/06/08 00:52:05;;;;;;;0.40;0.20;;;;;;;15.72;100.00;99829.78;5059081;28;20890;-50
2022/06/08 00:54:35;;;;;;;0.40;0.20;;;;;;;15.47;100.00;99830.28;5063070;28;20450;-50
2022/06/08 00:57:08;;;;;;;0.43;0.27;;;;;;;15.46;100.00;99818.69;5065781;28;20575;-50
2022/06/08 00:59:39;;;;;;;0.40;0.20;;;;;;;15.49;100.00;99821.22;5062360;28;20446;-51
2022/06/08 01:02:06;;;;;;;0.40;0.20;;;;;;;15.39;100.00;99814.66;5059262;28;20492;-50
2022/06/08 01:04:34;;;;;;;0.50;0.30;;;;;;;14.92;100.00;99823.47;5060649;28;20534;-51
2022/06/08 01:07:01;;;;;;;0.40;0.20;;;;;;;15.01;100.00;99816.75;5065472;28;20470;-49
2022/06/08 01:09:35;;;;;;;0.40;0.20;;;;;;;14.77;100.00;99808.22;5064632;28;20454;-51
2022/06/08 01:12:09;;;;;;;0.40;0.20;;;;;;;14.87;100.00;99812.16;5046532;28;20449;-50
2022/06/08 01:14:36;;;;;;;0.40;0.20;;;;;;;14.77;100.00;99808.22;5057327;28;20446;-50
2022/06/08 01:17:07;;;;;;;0.40;0.20;;;;;;;14.80;100.00;99806.28;5060066;28;20498;-50
2022/06/08 01:19:39;;;;;;;0.40;0.20;;;;;;;14.92;100.00;99802.06;5058841;28;20874;-50
2022/06/08 01:22:08;;;;;;;0.40;0.20;;;;;;;14.92;100.00;99798.50;5070641;28;20446;-50
2022/06/08 01:24:35;;;;;;;0.70;0.60;;;;;;;14.77;100.00;99800.22;5058531;28;20503;-49
2022/06/08 01:27:46;;;;;;;0.40;0.20;;;;;;;14.73;100.00;99796.84;5061661;28;20516;-50
2022/06/08 01:30:24;;;;;;;0.40;0.40;;;;;;;14.89;100.00;99786.16;5028970;28;20455;-52
2022/06/08 01:32:56;;;;;;;0.40;0.20;;;;;;;15.06;100.00;99793.28;5065563;28;20862;-50
2022/06/08 01:35:29;;;;;;;0.40;0.20;;;;;;;15.17;100.00;99792.69;5064018;28;20819;-51
2022/06/08 01:38:15;;;;;;;0.50;0.50;;;;;;;15.03;100.00;99788.09;5058236;28;20525;-52
2022/06/08 01:41:21;;;;;;;0.40;0.20;;;;;;;14.93;100.00;99785.03;5058175;28;20959;-53
2022/06/08 01:44:13;;;;;;;0.40;0.20;;;;;;;14.90;100.00;99785.22;5058547;28;20443;-49
2022/06/08 01:47:11;;;;;;;0.40;0.20;;;;;;;14.96;100.00;99776.00;5060487;28;20911;-50
2022/06/08 01:49:37;;;;;;;0.40;0.20;;;;;;;14.99;100.00;99784.72;5043120;28;21080;-50
2022/06/08 01:52:28;;;;;;;0.40;0.20;;;;;;;14.97;100.00;99778.59;5058217;28;20450;-50
2022/06/08 01:55:09;;;;;;;0.40;0.20;;;;;;;14.96;100.00;99776.88;5059575;28;20497;-50
2022/06/08 01:57:50;;;;;;;0.40;0.20;;;;;;;15.04;100.00;99768.41;5047496;28;20493;-50
2022/06/08 02:00:22;;;;;;;0.40;0.20;;;;;;;14.98;100.00;99766.06;5058389;28;20868;-50
2022/06/08 02:02:55;;;;;;;0.40;0.20;;;;;;;14.73;100.00;99762.06;5061089;28;20835;-50
2022/06/08 02:05:21;;;;;;;0.40;0.20;;;;;;;14.89;100.00;99764.75;5064997;28;20478;-50
2022/06/08 02:07:52;;;;;;;0.40;0.20;;;;;;;15.01;100.00;99757.88;5063287;28;20580;-51
2022/06/08 02:10:34;;;;;;;0.40;0.40;;;;;;;15.09;100.00;99756.50;5058499;28;20446;-50
2022/06/08 02:13:27;;;;;;;0.50;0.33;;;;;;;15.19;100.00;99753.28;5058169;28;20566;-50
2022/06/08 02:15:59;;;;;;;0.40;0.30;;;;;;;15.18;100.00;99754.25;5030617;28;20525;-50
2022/06/08 02:18:31;;;;;;;0.40;0.20;;;;;;;15.19;100.00;99755.97;5065074;28;20492;-51
2022/06/08 02:21:09;;;;;;;0.40;0.20;;;;;;;15.29;100.00;99746.47;5062941;28;20773;-51
2022/06/08 02:23:44;;;;;;;0.40;0.20;;;;;;;15.19;100.00;99742.59;5063092;28;20473;-51
2022/06/08 02:26:20;;;;;;;0.70;0.70;;;;;;;15.19;100.00;99742.59;5065066;28;20474;-50
2022/06/08 02:28:55;;;;;;;0.40;0.20;;;;;;;15.19;100.00;99739.91;5062597;28;20449;-50
2022/06/08 02:31:35;;;;;;;0.40;0.30;;;;;;;15.24;100.00;99736.03;5058237;28;20449;-51
2022/06/08 02:37:20;;;;;;;0.40;0.20;;;;;;;15.02;100.00;99739.03;5064194;28;20513;-50
2022/06/08 02:39:50;;;;;;;0.40;0.20;;;;;;;15.01;100.00;99737.31;5049668;28;20457;-50
2022/06/08 02:42:35;;;;;;;0.40;0.20;;;;;;;15.05;100.00;99725.47;5068708;28;20450;-50
2022/06/08 02:45:11;;;;;;;0.40;0.20;;;;;;;14.73;100.00;99734.44;5061692;28;20823;-50
2022/06/08 02:47:39;;;;;;;0.40;0.20;;;;;;;14.92;100.00;99731.59;5064461;28;20527;-50
2022/06/08 02:50:10;;;;;;;0.40;0.20;;;;;;;15.02;100.00;99727.47;5057016;28;20459;-52
2022/06/08 02:52:44;;;;;;;0.40;0.30;;;;;;;15.17;100.00;99737.31;5058810;28;20442;-52
2022/06/08 02:55:30;;;;;;;13.23;1.57;;;;;;;15.39;100.00;99728.94;5061699;28;20791;-52
2022/06/08 02:58:05;;;;;;;0.40;0.20;;;;;;;15.30;100.00;99724.97;5063899;28;20498;-52
2022/06/08 03:00:37;;;;;;;0.40;0.20;;;;;;;15.30;100.00;99719.59;5068117;28;20447;-53
2022/06/08 03:03:40;;;;;;;1.10;1.07;;;;;;;15.34;100.00;99723.81;5068237;28;20500;-52
2022/06/08 03:06:12;;;;;;;0.50;0.47;;;;;;;15.51;100.00;99716.66;5039064;28;20567;-52
2022/06/08 03:08:47;;;;;;;0.40;0.20;;;;;;;15.63;100.00;99727.56;5061563;28;20445;-52
2022/06/08 03:11:15;;;;;;;0.40;0.20;;;;;;;15.66;100.00;99716.66;5073446;28;20989;-53
2022/06/08 03:13:49;;;;;;;0.40;0.20;;;;;;;15.54;100.00;99711.97;5061974;28;20474;-53
2022/06/08 03:16:39;;;;;;;0.40;0.20;;;;;;;15.55;100.00;99712.84;5060592;28;20537;-51
2022/06/08 03:19:07;;;;;;;0.40;0.20;;;;;;;15.39;100.00;99710.19;5063595;28;20530;-51
2022/06/08 03:21:35;;;;;;;0.40;0.20;;;;;;;15.39;100.00;99707.53;5071430;28;20515;-51
2022/06/08 03:24:02;;;;;;;0.40;0.20;;;;;;;15.25;100.00;99715.47;5061787;28;20868;-50
2022/06/08 03:26:37;;;;;;;0.40;0.20;;;;;;;15.20;100.00;99709.50;5067636;28;20526;-51
2022/06/08 03:29:03;;;;;;;0.40;0.20;;;;;;;15.41;100.00;99702.94;5067258;28;20441;-51
2022/06/08 03:31:30;;;;;;;0.40;0.20;;;;;;;15.47;100.00;99704.38;5061178;28;20450;-51
2022/06/08 03:33:57;;;;;;;0.40;0.30;;;;;;;15.45;100.00;99706.28;5061115;28;20457;-51
2022/06/08 03:36:23;;;;;;;0.40;0.20;;;;;;;15.39;100.00;99708.38;5068396;28;20582;-51
2022/06/08 03:38:50;;;;;;;1.37;1.07;;;;;;;15.51;100.00;99705.94;5067452;28;20504;-51
2022/06/08 03:41:17;;;;;;;0.40;0.20;;;;;;;15.39;100.00;99707.53;5061454;28;20446;-50
2022/06/08 03:43:44;;;;;;;0.40;0.20;;;;;;;15.44;100.00;99713.47;5059629;28;20898;-51
2022/06/08 03:46:15;;;;;;;0.40;0.40;;;;;;;15.40;100.00;99696.72;5066867;28;20481;-51
2022/06/08 03:48:44;;;;;;;0.40;0.20;;;;;;;15.50;100.00;99710.44;5067243;28;20442;-50
2022/06/08 03:51:14;;;;;;;0.40;0.30;;;;;;;15.59;100.00;99711.69;5061578;28;20939;-51
2022/06/08 03:53:46;;;;;;;0.40;0.30;;;;;;;15.63;100.00;99708.81;5060446;28;20447;-50
2022/06/08 03:56:16;;;;;;;0.40;0.20;;;;;;;15.76;100.00;99705.38;5064405;28;20499;-50
2022/06/08 03:58:44;;;;;;;0.40;0.30;;;;;;;15.72;100.00;99698.47;5067600;28;20500;-50
2022/06/08 04:01:12;;;;;;;0.40;0.20;;;;;;;15.69;100.00;99708.44;5064047;28;20473;-50
2022/06/08 04:03:38;;;;;;;0.40;0.20;;;;;;;16.27;100.00;99707.59;5061002;28;20453;-51
2022/06/08 04:06:05;;;;;;;0.40;0.20;;;;;;;16.43;100.00;99702.16;5063296;28;20521;-51
2022/06/08 04:08:32;;;;;;;0.40;0.20;;;;;;;16.37;100.00;99717.78;5066859;28;20478;-50
2022/06/08 04:10:59;;;;;;;0.40;0.20;;;;;;;16.39;100.00;99713.19;5064232;28;20478;-51
2022/06/08 04:13:25;;;;;;;0.40;0.20;;;;;;;16.41;100.00;99713.94;5060035;28;20449;-51
2022/06/08 04:15:52;;;;;;;0.40;0.20;;;;;;;16.17;100.00;99714.50;5072967;28;20480;-51
2022/06/08 04:18:21;;;;;;;0.40;0.20;;;;;;;16.16;100.00;99715.44;5068094;28;20898;-51
2022/06/08 04:20:51;;;;;;;0.40;0.30;;;;;;;16.22;100.00;99719.59;5065962;28;20450;-50
2022/06/08 04:23:20;;;;;;;0.40;0.20;;;;;;;16.41;100.00;99724.66;5066350;28;20446;-51
2022/06/08 04:25:48;;;;;;;0.40;0.20;;;;;;;16.52;100.00;99722.19;5066227;28;20446;-51
2022/06/08 04:28:15;;;;;;;0.40;0.20;;;;;;;16.71;100.00;99722.78;5060737;28;20451;-50
2022/06/08 04:30:42;;;;;;;0.40;0.20;;;;;;;16.54;100.00;99723.81;5059234;28;20944;-51
2022/06/08 04:33:09;;;;;;;0.40;0.20;;;;;;;16.61;100.00;99724.31;5065550;28;20451;-50
2022/06/08 04:35:36;;;;;;;0.40;0.20;;;;;;;16.38;100.00;99716.81;5065855;28;20454;-49
2022/06/08 04:38:03;;;;;;;0.40;0.20;;;;;;;16.53;100.00;99714.03;5060681;28;20567;-49
2022/06/08 04:40:30;;;;;;;0.67;0.67;;;;;;;16.51;100.00;99712.41;5059755;28;20451;-50
2022/06/08 04:42:57;;;;;;;0.40;0.20;;;;;;;16.65;100.00;99711.56;5065022;28;20485;-50
2022/06/08 04:45:25;;;;;;;0.40;0.20;;;;;;;16.97;100.00;99709.53;5066084;28;20450;-50
2022/06/08 04:47:51;;;;;;;0.40;0.20;;;;;;;17.45;100.00;99702.81;5041020;23;20562;-74
2022/06/08 04:50:19;;;;;;;0.40;0.20;;;;;;;18.15;100.00;99711.50;5030021;28;20488;-74
2022/06/08 04:52:48;;;;;;;0.40;0.20;;;;;;;18.59;99.50;99712.91;5052756;28;20512;-74
2022/06/08 04:55:15;;;;;;;0.50;0.30;;;;;;;18.39;99.42;99717.00;5048077;28;20472;-74
2022/06/08 04:57:42;;;;;;;0.40;0.20;;;;;;;18.06;100.00;99706.75;5041031;28;21003;-74
2022/06/08 05:00:12;;;;;;;0.40;0.20;;;;;;;18.10;98.65;99707.41;5039167;28;20500;-75
2022/06/08 05:02:42;;;;;;;0.40;0.20;;;;;;;17.93;100.00;99705.84;5041833;28;20487;-75
2022/06/08 05:05:24;;;;;;;0.40;0.20;;;;;;;17.84;100.00;99703.81;5044357;28;20475;-75
2022/06/08 05:07:52;;;;;;;0.40;0.20;;;;;;;17.77;100.00;99717.66;5044540;28;20469;-74
2022/06/08 05:10:21;;;;;;;0.40;0.20;;;;;;;17.71;100.00;99707.34;5024709;28;20487;-74
2022/06/08 05:12:48;;;;;;;0.40;0.20;;;;;;;17.55;100.00;99708.44;5027661;28;20456;-74
2022/06/08 05:15:20;;;;;;;0.40;0.20;;;;;;;17.74;100.00;99714.31;5043229;28;20514;-75
2022/06/08 05:17:46;;;;;;;0.40;0.20;;;;;;;17.77;100.00;99700.66;5044374;28;20563;-74
2022/06/08 05:20:16;;;;;;;0.40;0.20;;;;;;;17.91;100.00;99705.97;5039805;28;20955;-75
2022/06/08 05:22:44;;;;;;;0.40;0.30;;;;;;;17.68;100.00;99710.22;5050021;28;20455;-74
2022/06/08 05:25:16;;;;;;;0.40;0.20;;;;;;;17.87;100.00;99707.16;5040291;28;20529;-75
2022/06/08 05:27:43;;;;;;;0.50;0.40;;;;;;;17.73;100.00;99693.78;5038658;28;20498;-73
2022/06/08 05:30:10;;;;;;;0.40;0.20;;;;;;;17.73;100.00;99691.97;5042776;28;20444;-74
2022/06/08 05:32:37;;;;;;;0.40;0.20;;;;;;;17.60;100.00;99698.22;5045771;28;20477;-74
2022/06/08 05:35:05;;;;;;;0.40;0.20;;;;;;;17.53;100.00;99684.31;5041346;28;20896;-75
2022/06/08 05:37:32;;;;;;;0.40;0.20;;;;;;;17.72;100.00;99684.00;5037168;28;20493;-74
2022/06/08 05:39:59;;;;;;;0.40;0.20;;;;;;;18.10;100.00;99684.06;5042173;28;20677;-74
2022/06/08 05:42:25;;;;;;;0.40;0.20;;;;;;;18.05;98.76;99684.38;5045160;28;20505;-74
2022/06/08 05:44:57;;;;;;;0.40;0.20;;;;;;;18.33;97.50;99680.63;5041957;28;20470;-75
2022/06/08 05:47:24;;;;;;;0.40;0.20;;;;;;;18.42;97.36;99687.19;5037384;28;20570;-75
2022/06/08 05:49:51;;;;;;;0.43;0.30;;;;;;;18.51;97.34;99691.06;5039715;28;20486;-74
2022/06/08 05:52:17;;;;;;;0.40;0.20;;;;;;;18.60;97.75;99688.56;5044020;28;20487;-75
2022/06/08 05:54:44;;;;;;;0.50;0.50;;;;;;;18.71;96.63;99692.34;5042468;28;20489;-75
2022/06/08 05:57:11;;;;;;;0.40;0.20;;;;;;;19.21;93.46;99692.25;5036884;28;21037;-74
2022/06/08 05:59:38;;;;;;;0.40;0.20;;;;;;;19.11;91.81;99693.03;5039166;28;21042;-75
2022/06/08 06:02:07;;;;;;;0.77;0.77;;;;;;;19.11;92.00;99684.94;5045147;28;20509;-75
2022/06/08 06:04:34;;;;;;;0.50;0.50;;;;;;;18.87;92.75;99690.28;5042330;28;20450;-74
2022/06/08 06:07:01;;;;;;;0.40;0.20;;;;;;;18.91;93.98;99697.16;5037513;28;20848;-76
2022/06/08 06:09:27;;;;;;;0.40;0.20;;;;;;;19.23;92.43;99700.22;5044029;28;20598;-75
2022/06/08 06:11:54;;;;;;;0.40;0.20;;;;;;;19.69;91.65;99692.25;5049056;28;20944;-76
2022/06/08 06:14:22;;;;;;;0.40;0.20;;;;;;;19.66;91.02;99705.13;5048467;28;20443;-76
2022/06/08 06:16:48;;;;;;;0.40;0.30;;;;;;;20.16;89.93;99709.34;5040690;28;20486;-76
2022/06/08 06:19:15;;;;;;;0.40;0.20;;;;;;;19.93;88.67;99697.63;5043354;28;20876;-76
2022/06/08 06:21:42;;;;;;;0.40;0.20;;;;;;;19.65;91.08;99696.16;5054250;28;20515;-76
2022/06/08 06:24:13;;;;;;;0.40;0.20;;;;;;;19.44;89.75;99692.34;5042110;28;20459;-76
2022/06/08 06:26:43;;;;;;;0.40;0.20;;;;;;;19.41;88.98;99701.53;5048987;28;20483;-77
2022/06/08 06:29:10;;;;;;;1.27;0.77;;;;;;;19.23;89.62;99689.44;5049029;28;20572;-76
2022/06/08 06:31:41;;;;;;;0.40;0.20;;;;;;;19.11;90.99;99691.19;5043326;28;20457;-76
2022/06/08 06:34:13;;;;;;;0.40;0.20;;;;;;;19.39;90.22;99681.91;5041160;28;20447;-76
2022/06/08 06:36:40;;;;;;;0.67;0.60;;;;;;;18.82;92.11;99676.28;5046583;28;20470;-76
2022/06/08 06:39:07;;;;;;;0.40;0.20;;;;;;;18.90;91.26;99673.88;5049057;28;20872;-77
2022/06/08 06:41:34;;;;;;;0.40;0.30;;;;;;;19.22;90.75;99676.94;5044636;28;20446;-77
2022/06/08 06:44:01;;;;;;;1.17;1.17;;;;;;;19.50;90.91;99679.28;5040807;28;20865;-76
2022/06/08 06:46:27;;;;;;;0.40;0.20;;;;;;;19.62;88.53;99669.44;5046350;28;20475;-76
2022/06/08 06:48:54;;;;;;;0.40;0.30;;;;;;;19.81;87.88;99671.59;5048049;28;20529;-76
2022/06/08 06:51:21;;;;;;;0.40;0.20;;;;;;;19.99;89.13;99672.00;5044169;28;20504;-76
2022/06/08 06:53:48;;;;;;;0.40;0.30;;;;;;;20.28;87.38;99670.59;5042588;28;20447;-76
2022/06/08 06:56:14;;;;;;;0.40;0.20;;;;;;;20.38;86.03;99673.41;5046319;28;20471;-77
2022/06/08 06:58:41;;;;;;;0.40;0.20;;;;;;;20.07;87.36;99665.03;5048431;28;20487;-77
2022/06/08 07:01:08;;;;;;;0.40;0.20;;;;;;;20.27;86.34;99662.59;5034798;28;20530;-76
2022/06/08 07:03:35;;;;;;;0.40;0.20;;;;;;;20.28;85.53;99659.78;5049551;28;20440;-77
2022/06/08 07:06:02;;;;;;;0.40;0.30;;;;;;;20.05;87.06;99661.59;5045259;28;20512;-77
2022/06/08 07:08:28;;;;;;;0.40;0.20;;;;;;;20.30;86.96;99657.84;5042398;28;20497;-76
2022/06/08 07:13:41;;;;;;;0.40;0.20;;;;;;;20.80;85.35;99657.50;5049130;28;20806;-77
2022/06/08 07:16:07;;;;;;;0.53;0.47;;;;;;;20.66;84.80;99656.78;5036341;28;20857;-77
2022/06/08 07:18:34;;;;;;;0.40;0.20;;;;;;;20.82;84.27;99642.00;5047079;28;20590;-76
2022/06/08 07:21:01;;;;;;;0.40;0.20;;;;;;;21.40;82.85;99653.50;5048423;28;20453;-77
2022/06/08 07:23:28;;;;;;;0.40;0.20;;;;;;;21.77;80.85;99643.97;5047276;28;20451;-76
2022/06/08 07:25:55;;;;;;;0.40;0.20;;;;;;;21.71;80.59;99640.94;5048462;28;20471;-77
2022/06/08 07:28:22;;;;;;;0.50;0.30;;;;;;;21.72;81.15;99642.66;5042685;28;20451;-77
2022/06/08 07:30:48;;;;;;;0.40;0.30;;;;;;;22.08;79.41;99633.25;5040948;28;20489;-77
2022/06/08 07:33:15;;;;;;;0.40;0.20;;;;;;;21.76;80.43;99633.28;5054314;28;20485;-77
2022/06/08 07:35:41;;;;;;;0.40;0.20;;;;;;;21.95;80.03;99627.16;5040363;28;20472;-76
2022/06/08 07:38:08;;;;;;;0.40;0.40;;;;;;;21.96;79.07;99618.91;5046250;28;20528;-77
2022/06/08 07:40:35;;;;;;;0.57;0.57;;;;;;;21.97;78.04;99615.19;5031706;28;20528;-77
2022/06/08 07:43:01;;;;;;;0.40;0.20;;;;;;;22.10;79.09;99615.88;5042989;28;20451;-77
2022/06/08 07:45:28;;;;;;;0.40;0.30;;;;;;;21.78;79.45;99617.75;5041314;28;20468;-77
2022/06/08 07:50:41;;;;;;;0.40;0.20;;;;;;;22.53;78.20;99622.94;5048715;28;20447;-77
2022/06/08 07:53:08;;;;;;;0.93;0.93;;;;;;;22.38;75.89;99611.59;5046750;28;20454;-77
2022/06/08 07:55:35;;;;;;;0.40;0.30;;;;;;;22.83;74.82;99608.50;5042247;28;20467;-77
2022/06/08 07:58:03;;;;;;;0.50;0.50;;;;;;;22.79;74.73;99609.75;5043749;28;20877;-77
2022/06/08 08:00:30;;;;;;;0.40;0.20;;;;;;;22.80;75.54;99608.75;5046932;28;20456;-77
2022/06/08 08:02:56;;;;;;;0.40;0.20;;;;;;;22.85;74.71;99597.53;5046533;28;21021;-77
2022/06/08 08:05:23;;;;;;;0.40;0.20;;;;;;;22.92;73.90;99596.00;5040418;28;20475;-79
2022/06/08 08:07:51;;;;;;;3.07;2.87;;;;;;;22.96;75.38;99600.13;5042321;28;20885;-77
2022/06/08 08:10:23;;;;;;;0.40;0.20;;;;;;;22.79;74.06;99600.78;5043894;28;20448;-76
2022/06/08 08:12:51;;;;;;;0.40;0.30;;;;;;;23.11;73.74;99578.88;5047750;28;20454;-77
2022/06/08 08:15:19;;;;;;;0.40;0.20;;;;;;;22.94;74.05;99573.16;5035358;28;20468;-77
2022/06/08 08:17:45;;;;;;;0.40;0.33;;;;;;;23.05;75.85;99574.91;5046661;28;20914;-77
2022/06/08 08:20:15;;;;;;;0.40;0.20;;;;;;;23.15;73.69;99570.31;5041800;28;20450;-77
2022/06/08 08:22:42;;;;;;;0.40;0.20;;;;;;;23.27;72.23;99563.75;5052757;28;20455;-77
2022/06/08 08:25:12;;;;;;;0.40;0.23;;;;;;;23.00;73.18;99567.16;5040280;28;20479;-76
2022/06/08 08:27:38;;;;;;;0.40;0.30;;;;;;;23.06;73.94;99549.50;5040376;28;20440;-76
2022/06/08 08:30:05;;;;;;;0.40;0.20;;;;;;;23.12;73.88;99557.06;5046198;28;20438;-76
2022/06/08 08:32:32;;;;;;;0.40;0.20;;;;;;;22.95;73.72;99553.19;5047765;28;20494;-76
2022/06/08 08:34:58;;;;;;;0.40;0.20;;;;;;;23.26;72.46;99544.91;5042396;28;20483;-76
2022/06/08 08:37:25;;;;;;;0.40;0.20;;;;;;;23.03;72.19;99541.66;5039595;28;20466;-76
2022/06/08 08:39:52;;;;;;;0.40;0.20;;;;;;;23.09;74.74;99532.94;5044872;28;20546;-76
2022/06/08 08:42:21;;;;;;;0.40;0.30;;;;;;;23.04;72.28;99530.66;5047956;28;20483;-77
2022/06/08 08:45:11;;;;;;;0.40;0.20;;;;;;;23.11;73.67;99536.34;5043230;28;21013;-77
2022/06/08 08:47:40;;;;;;;0.40;0.30;;;;;;;23.06;72.91;99538.66;5034840;28;20459;-76
2022/06/08 08:50:22;;;;;;;0.40;0.20;;;;;;;22.89;73.33;99545.63;5045576;28;20450;-77
2022/06/08 08:53:09;;;;;;;0.40;0.30;;;;;;;23.26;71.04;99532.22;5046050;28;20455;-77
2022/06/08 08:55:46;;;;;;;0.40;0.30;;;;;;;23.27;71.12;99536.63;4997398;28;21003;-76
2022/06/08 08:58:17;;;;;;;1.23;0.97;;;;;;;23.07;71.23;99528.66;5046075;28;20461;-76
2022/06/08 09:00:49;;;;;;;0.50;0.40;;;;;;;23.31;71.54;99534.53;5038709;28;20425;-77
2022/06/08 09:03:32;;;;;;;0.60;0.50;;;;;;;23.17;72.08;99530.38;5038924;28;20504;-77
2022/06/08 09:06:07;;;;;;;0.40;0.20;;;;;;;23.57;71.53;99523.91;5044051;28;20443;-76
2022/06/08 09:08:34;;;;;;;0.50;0.50;;;;;;;23.27;71.13;99514.09;5046743;28;20505;-77
2022/06/08 09:11:02;;;;;;;0.43;0.30;;;;;;;23.51;72.70;99519.06;5045953;28;20820;-77
2022/06/08 09:13:37;;;;;;;1.13;1.13;;;;;;;23.54;70.68;99516.06;5041559;28;20788;-76
2022/06/08 09:16:24;;;;;;;0.60;0.60;;;;;;;24.13;67.13;99506.78;5040707;28;20991;-77
2022/06/08 09:18:50;;;;;;;0.40;0.30;;;;;;;24.01;66.72;99497.13;5044616;28;20491;-77
2022/06/08 09:21:30;;;;;;;0.40;0.23;;;;;;;24.72;65.92;99489.19;5049290;28;20515;-77
2022/06/08 09:24:01;;;;;;;0.40;0.30;;;;;;;24.71;62.93;99492.91;5043173;28;21006;-77
2022/06/08 09:26:33;;;;;;;2.50;2.30;;;;;;;24.25;63.40;99497.41;5046713;28;20895;-77
2022/06/08 09:29:24;;;;;;;0.40;0.30;;;;;;;24.30;63.80;99491.59;5047133;28;20447;-77
2022/06/08 09:31:51;;;;;;;0.50;0.50;;;;;;;24.66;60.96;99485.19;5045359;28;20432;-77
2022/06/08 09:34:23;;;;;;;0.40;0.20;;;;;;;24.67;62.20;99484.22;5047824;28;20456;-77
2022/06/08 09:37:26;;;;;;;0.40;0.27;;;;;;;25.10;59.67;99491.63;5045540;28;20467;-77
2022/06/08 09:39:55;;;;;;;0.40;0.30;;;;;;;25.58;58.71;99489.44;5044404;28;20843;-77
2022/06/08 09:42:49;;;;;;;0.40;0.30;;;;;;;25.19;56.16;99483.53;5051230;28;20437;-77
2022/06/08 09:45:36;;;;;;;0.40;0.23;;;;;;;24.79;58.32;99479.38;5041449;28;21034;-76
2022/06/08 09:51:43;;;;;;;0.50;0.50;;;;;;;24.80;57.56;99472.94;5031421;28;20429;-77
2022/06/08 09:54:17;;;;;;;0.40;0.30;;;;;;;25.32;55.95;99478.53;5040474;28;20451;-77
2022/06/08 09:57:07;;;;;;;0.40;0.20;;;;;;;24.63;56.71;99460.19;5042728;28;20435;-77
2022/06/08 09:59:55;;;;;;;0.60;0.60;;;;;;;24.85;57.21;99465.19;5045032;28;20884;-77
2022/06/08 10:02:25;;;;;;;0.40;0.23;;;;;;;24.71;57.12;99466.56;5043148;28;20410;-77
2022/06/08 10:05:23;;;;;;;0.40;0.20;;;;;;;24.36;56.68;99461.06;5041652;28;20473;-77
2022/06/08 10:08:10;;;;;;;0.40;0.20;;;;;;;25.31;55.32;99455.06;5043316;28;20470;-77
2022/06/08 10:11:03;;;;;;;0.40;0.27;;;;;;;24.77;56.39;99457.78;5040857;28;20450;-77
2022/06/08 10:13:39;;;;;;;0.40;0.30;;;;;;;24.58;55.97;99451.66;5048143;28;20455;-77
2022/06/08 10:16:17;;;;;;;0.40;0.30;;;;;;;24.73;55.47;99450.97;5031869;28;20460;-76
2022/06/08 10:18:49;;;;;;;0.40;0.20;;;;;;;24.62;56.49;99443.03;5044411;28;20487;-77
2022/06/08 10:21:25;;;;;;;0.40;0.20;;;;;;;24.56;56.32;99438.22;5047853;28;20925;-76
2022/06/08 10:23:59;;;;;;;0.40;0.20;;;;;;;24.62;56.17;99436.75;5043435;28;20436;-77
2022/06/08 10:26:36;;;;;;;0.40;0.30;;;;;;;25.05;55.34;99445.00;5046035;28;20525;-77
2022/06/08 10:29:23;;;;;;;0.40;0.30;;;;;;;24.73;56.37;99436.50;5045797;28;20450;-77
2022/06/08 10:31:57;;;;;;;0.40;0.20;;;;;;;24.47;56.34;99436.41;5044787;28;20455;-77
2022/06/08 10:34:31;;;;;;;0.40;0.20;;;;;;;24.40;57.68;99435.34;5046090;28;20505;-77
2022/06/08 10:37:14;;;;;;;0.40;0.20;;;;;;;24.54;56.84;99428.53;5044053;28;21051;-77
2022/06/08 10:39:43;;;;;;;0.40;0.30;;;;;;;24.33;56.80;99423.34;5046328;28;20491;-77
2022/06/08 10:42:40;;;;;;;0.77;0.77;;;;;;;24.29;56.72;99430.94;5045189;28;20496;-77
2022/06/08 10:45:19;;;;;;;0.50;0.30;;;;;;;24.14;57.24;99433.31;5043034;28;20471;-77
2022/06/08 10:48:22;;;;;;;0.40;0.30;;;;;;;24.29;55.97;99432.78;5039281;28;20466;-77
2022/06/08 10:51:20;;;;;;;0.40;0.20;;;;;;;23.85;58.15;99422.59;5040235;28;20949;-77
2022/06/08 10:56:56;;;;;;;0.40;0.20;;;;;;;23.57;58.08;99421.69;5042976;28;20467;-77
2022/06/08 10:59:30;;;;;;;0.40;0.20;;;;;;;23.61;59.02;99420.41;5047846;28;20577;-77
2022/06/08 11:02:10;;;;;;;0.50;0.40;;;;;;;23.35;57.86;99409.31;5049704;28;20500;-77
2022/06/08 11:05:00;;;;;;;0.60;0.60;;;;;;;23.21;58.30;99400.78;5047470;28;20537;-77
2022/06/08 11:07:46;;;;;;;0.50;0.27;;;;;;;23.18;59.52;99398.38;4995600;28;20448;-77
2022/06/08 11:10:13;;;;;;;0.87;0.83;;;;;;;23.38;59.86;99408.16;5045982;28;20509;-77
2022/06/08 11:12:51;;;;;;;0.40;0.20;;;;;;;23.35;60.30;99414.72;5047618;28;20533;-77
2022/06/08 11:15:38;;;;;;;0.40;0.20;;;;;;;23.45;59.75;99420.13;5047187;28;20474;-77
2022/06/08 11:18:54;;;;;;;0.50;0.40;;;;;;;23.29;60.62;99419.88;5047640;28;20575;-77
2022/06/08 11:21:57;;;;;;;0.57;0.50;;;;;;;23.26;60.93;99415.59;5024486;28;20825;-77
2022/06/08 11:24:34;;;;;;;0.40;0.20;;;;;;;23.36;60.93;99421.00;5040565;28;20447;-77
2022/06/08 11:27:00;;;;;;;0.40;0.20;;;;;;;22.87;61.06;99419.34;5045011;28;20482;-77
2022/06/08 11:29:29;;;;;;;0.63;0.63;;;;;;;22.70;61.99;99413.63;5048526;28;20812;-77
2022/06/08 11:31:57;;;;;;;0.40;0.20;;;;;;;22.86;62.25;99417.66;5045543;28;20455;-77
2022/06/08 11:34:52;;;;;;;0.40;0.20;;;;;;;22.86;62.12;99409.50;5041403;28;20481;-77
2022/06/08 11:37:34;;;;;;;0.40;0.30;;;;;;;22.84;63.17;99417.78;5040700;28;20486;-77
2022/06/08 11:40:20;;;;;;;0.40;0.20;;;;;;;22.74;63.34;99411.47;5047199;28;20487;-77
2022/06/08 11:42:59;;;;;;;0.40;0.20;;;;;;;22.64;62.68;99395.25;5048109;28;20483;-77
2022/06/08 11:45:52;;;;;;;0.40;0.20;;;;;;;22.81;63.07;99396.38;5047005;28;20512;-77
2022/06/08 11:48:21;;;;;;;0.40;0.20;;;;;;;22.71;64.11;99393.66;5046473;28;20450;-77
2022/06/08 11:50:51;;;;;;;0.50;0.50;;;;;;;22.70;63.55;99382.97;5041361;28;20425;-77
2022/06/08 11:53:19;;;;;;;0.40;0.20;;;;;;;22.84;62.90;99385.28;5041523;28;20505;-77
2022/06/08 11:56:19;;;;;;;0.40;0.20;;;;;;;22.72;63.70;99378.25;5041108;28;20475;-77
2022/06/08 11:58:50;;;;;;;0.40;0.20;;;;;;;22.87;64.40;99371.41;5039942;28;20518;-77
2022/06/08 12:01:22;;;;;;;0.40;0.20;;;;;;;22.77;62.75;99379.56;5042372;28;20505;-77
2022/06/08 12:03:56;;;;;;;0.40;0.20;;;;;;;23.04;63.35;99376.13;5047772;28;20964;-77
2022/06/08 12:06:27;;;;;;;0.40;0.30;;;;;;;23.18;63.47;99373.97;5046688;28;20463;-77
2022/06/08 12:09:20;;;;;;;0.40;0.30;;;;;;;23.09;63.56;99375.69;5041474;28;20442;-77
2022/06/08 12:11:58;;;;;;;0.40;0.20;;;;;;;22.96;63.09;99364.28;5036726;28;20462;-77